sensor_id;sensor_type;location;lat;lon;timestamp;pressure;altitude;pressure_sealevel;temperature;humidity
8890;BME280;4481;43.406;24.454;2023-04-30T00:02:03;77207.75;;;-144.09;100.00
8890;BME280;4481;43.406;24.454;2023-04-30T00:04:29;77220.31;;;-144.09;100.00
8890;BME280;4481;43.406;24.454;2023-04-30T00:06:55;77237.03;;;-144.09;100.00
8890;BME280;4481;43.406;24.454;2023-04-30T00:09:22;77228.66;;;-144.09;100.00
8890;BME280;4481;43.406;24.454;2023-04-30T00:11:48;77249.56;;;-144.09;100.00
8890;BME280;4481;43.406;24.454;2023-04-30T00:14:14;77255.81;;;-144.09;100.00
8890;BME280;4481;43.406;24.454;2023-04-30T00:16:40;77276.72;;;-144.09;100.00
8890;BME280;4481;43.406;24.454;2023-04-30T00:19:06;77287.19;;;-144.09;100.00
8890;BME280;4481;43.406;24.454;2023-04-30T00:21:33;77301.81;;;-144.09;100.00
8890;BME280;4481;43.406;24.454;2023-04-30T00:24:00;77312.25;;;-144.09;100.00
8890;BME280;4481;43.406;24.454;2023-04-30T00:26:26;77339.44;;;-144.09;100.00
8890;BME280;4481;43.406;24.454;2023-04-30T00:28:53;77326.88;;;-144.09;100.00
8890;BME280;4481;43.406;24.454;2023-04-30T00:31:19;77324.81;;;-144.09;100.00
8890;BME280;4481;43.406;24.454;2023-04-30T00:33:45;77316.44;;;-144.09;100.00
8890;BME280;4481;43.406;24.454;2023-04-30T00:36:11;77322.72;;;-144.09;100.00
8890;BME280;4481;43.406;24.454;2023-04-30T00:38:38;77337.34;;;-144.09;100.00
8890;BME280;4481;43.406;24.454;2023-04-30T00:41:04;77349.88;;;-144.09;100.00
8890;BME280;4481;43.406;24.454;2023-04-30T00:43:31;77351.97;;;-144.09;100.00
8890;BME280;4481;43.406;24.454;2023-04-30T00:45:58;77362.41;;;-144.09;100.00
8890;BME280;4481;43.406;24.454;2023-04-30T00:48:24;77368.69;;;-144.09;100.00
8890;BME280;4481;43.406;24.454;2023-04-30T00:50:52;77351.97;;;-144.09;100.00
8890;BME280;4481;43.406;24.454;2023-04-30T00:53:19;77358.25;;;-144.09;100.00
8890;BME280;4481;43.406;24.454;2023-04-30T00:55:47;77345.69;;;-144.09;100.00
8890;BME280;4481;43.406;24.454;2023-04-30T00:58:14;77314.34;;;-144.09;100.00
8890;BME280;4481;43.406;24.454;2023-04-30T01:00:40;77333.16;;;-144.09;100.00
8890;BME280;4481;43.406;24.454;2023-04-30T01:03:11;77372.88;;;-144.09;100.00
8890;BME280;4481;43.406;24.454;2023-04-30T01:05:37;77391.69;;;-144.09;100.00
8890;BME280;4481;43.406;24.454;2023-04-30T01:08:04;77391.69;;;-144.09;100.00
8890;BME280;4481;43.406;24.454;2023-04-30T01:10:37;77397.94;;;-144.09;100.00
8890;BME280;4481;43.406;24.454;2023-04-30T01:13:11;77400.03;;;-144.09;100.00
8890;BME280;4481;43.406;24.454;2023-04-30T01:15:44;77400.03;;;-144.09;100.00
8890;BME280;4481;43.406;24.454;2023-04-30T01:18:14;77391.69;;;-144.09;100.00
8890;BME280;4481;43.406;24.454;2023-04-30T01:20:46;77395.88;;;-144.09;100.00
8890;BME280;4481;43.406;24.454;2023-04-30T01:23:27;77391.69;;;-144.09;100.00
8890;BME280;4481;43.406;24.454;2023-04-30T01:26:10;77379.13;;;-144.09;100.00
8890;BME280;4481;43.406;24.454;2023-04-30T01:28:39;77364.50;;;-144.09;100.00
8890;BME280;4481;43.406;24.454;2023-04-30T01:31:11;77362.41;;;-144.09;100.00
8890;BME280;4481;43.406;24.454;2023-04-30T01:33:38;77358.25;;;-144.09;100.00
8890;BME280;4481;43.406;24.454;2023-04-30T01:36:20;77354.06;;;-144.09;100.00
8890;BME280;4481;43.406;24.454;2023-04-30T01:39:02;77374.97;;;-144.09;100.00
8890;BME280;4481;43.406;24.454;2023-04-30T01:41:36;77393.78;;;-144.09;100.00
8890;BME280;4481;43.406;24.454;2023-04-30T01:44:17;77404.22;;;-144.09;100.00
8890;BME280;4481;43.406;24.454;2023-04-30T01:46:53;77397.94;;;-144.09;100.00
8890;BME280;4481;43.406;24.454;2023-04-30T01:49:27;77391.69;;;-144.09;100.00
8890;BME280;4481;43.406;24.454;2023-04-30T01:52:01;77397.94;;;-144.09;100.00
8890;BME280;4481;43.406;24.454;2023-04-30T01:54:33;77404.22;;;-144.09;100.00
8890;BME280;4481;43.406;24.454;2023-04-30T01:57:03;77397.94;;;-144.09;100.00
8890;BME280;4481;43.406;24.454;2023-04-30T01:59:34;77389.59;;;-144.09;100.00
8890;BME280;4481;43.406;24.454;2023-04-30T02:02:01;77391.69;;;-144.09;100.00
8890;BME280;4481;43.406;24.454;2023-04-30T02:04:27;77370.78;;;-144.09;100.00
8890;BME280;4481;43.406;24.454;2023-04-30T02:06:53;77387.50;;;-144.09;100.00
8890;BME280;4481;43.406;24.454;2023-04-30T02:09:19;77406.31;;;-144.09;100.00
8890;BME280;4481;43.406;24.454;2023-04-30T02:11:48;77387.50;;;-144.09;100.00
8890;BME280;4481;43.406;24.454;2023-04-30T02:14:14;77387.50;;;-144.09;100.00
8890;BME280;4481;43.406;24.454;2023-04-30T02:16:41;77416.75;;;-144.09;100.00
8890;BME280;4481;43.406;24.454;2023-04-30T02:19:07;77427.22;;;-144.09;100.00
8890;BME280;4481;43.406;24.454;2023-04-30T02:21:33;77404.22;;;-144.09;100.00
8890;BME280;4481;43.406;24.454;2023-04-30T02:23:59;77418.84;;;-144.09;100.00
8890;BME280;4481;43.406;24.454;2023-04-30T02:26:25;77423.03;;;-144.09;100.00
8890;BME280;4481;43.406;24.454;2023-04-30T02:28:51;77435.56;;;-144.09;100.00
8890;BME280;4481;43.406;24.454;2023-04-30T02:31:18;77435.56;;;-144.09;100.00
8890;BME280;4481;43.406;24.454;2023-04-30T02:33:45;77437.66;;;-144.09;100.00
8890;BME280;4481;43.406;24.454;2023-04-30T02:36:11;77462.75;;;-144.09;100.00
8890;BME280;4481;43.406;24.454;2023-04-30T02:38:37;77462.75;;;-144.09;100.00
8890;BME280;4481;43.406;24.454;2023-04-30T02:41:03;77469.00;;;-144.09;100.00
8890;BME280;4481;43.406;24.454;2023-04-30T02:43:29;77469.00;;;-144.09;100.00
8890;BME280;4481;43.406;24.454;2023-04-30T02:45:55;77477.38;;;-144.09;100.00
8890;BME280;4481;43.406;24.454;2023-04-30T02:48:21;77489.91;;;-144.09;100.00
8890;BME280;4481;43.406;24.454;2023-04-30T02:50:48;77500.38;;;-144.09;100.00
8890;BME280;4481;43.406;24.454;2023-04-30T02:53:14;77483.66;;;-144.09;100.00
8890;BME280;4481;43.406;24.454;2023-04-30T02:55:40;77485.72;;;-144.09;100.00
8890;BME280;4481;43.406;24.454;2023-04-30T02:58:07;77485.72;;;-144.09;100.00
8890;BME280;4481;43.406;24.454;2023-04-30T03:00:33;77492.00;;;-144.09;100.00
8890;BME280;4481;43.406;24.454;2023-04-30T03:02:59;77496.19;;;-144.09;100.00
8890;BME280;4481;43.406;24.454;2023-04-30T03:05:25;77512.91;;;-144.09;100.00
8890;BME280;4481;43.406;24.454;2023-04-30T03:07:52;77521.28;;;-144.09;100.00
8890;BME280;4481;43.406;24.454;2023-04-30T03:10:18;77538.00;;;-144.09;100.00
8890;BME280;4481;43.406;24.454;2023-04-30T03:12:44;77540.06;;;-144.09;100.00
8890;BME280;4481;43.406;24.454;2023-04-30T03:15:10;77544.25;;;-144.09;100.00
8890;BME280;4481;43.406;24.454;2023-04-30T03:17:36;77542.16;;;-144.09;100.00
8890;BME280;4481;43.406;24.454;2023-04-30T03:20:03;77548.44;;;-144.09;100.00
8890;BME280;4481;43.406;24.454;2023-04-30T03:22:29;77552.63;;;-144.09;100.00
8890;BME280;4481;43.406;24.454;2023-04-30T03:24:56;77540.06;;;-144.09;100.00
8890;BME280;4481;43.406;24.454;2023-04-30T03:27:22;77538.00;;;-144.09;100.00
8890;BME280;4481;43.406;24.454;2023-04-30T03:29:48;77529.63;;;-144.09;100.00
8890;BME280;4481;43.406;24.454;2023-04-30T03:32:14;77531.72;;;-144.09;100.00
8890;BME280;4481;43.406;24.454;2023-04-30T03:34:40;77533.81;;;-144.09;100.00
8890;BME280;4481;43.406;24.454;2023-04-30T03:37:06;77538.00;;;-144.09;100.00
8890;BME280;4481;43.406;24.454;2023-04-30T03:39:32;77548.44;;;-144.09;100.00
8890;BME280;4481;43.406;24.454;2023-04-30T03:41:59;77533.81;;;-144.09;100.00
8890;BME280;4481;43.406;24.454;2023-04-30T03:44:27;77512.91;;;-144.09;100.00
8890;BME280;4481;43.406;24.454;2023-04-30T03:46:53;77533.81;;;-144.09;100.00
8890;BME280;4481;43.406;24.454;2023-04-30T03:49:19;77538.00;;;-144.09;100.00
8890;BME280;4481;43.406;24.454;2023-04-30T03:51:46;77546.34;;;-144.09;100.00
8890;BME280;4481;43.406;24.454;2023-04-30T03:54:12;77540.06;;;-144.09;100.00
8890;BME280;4481;43.406;24.454;2023-04-30T03:56:38;77529.63;;;-144.09;100.00
8890;BME280;4481;43.406;24.454;2023-04-30T03:59:06;77517.09;;;-144.09;100.00
8890;BME280;4481;43.406;24.454;2023-04-30T04:01:32;77527.53;;;-144.09;100.00
8890;BME280;4481;43.406;24.454;2023-04-30T04:03:58;77519.19;;;-144.09;100.00
8890;BME280;4481;43.406;24.454;2023-04-30T04:06:24;77527.53;;;-144.09;100.00
8890;BME280;4481;43.406;24.454;2023-04-30T04:08:51;77500.38;;;-144.09;100.00
8890;BME280;4481;43.406;24.454;2023-04-30T04:11:17;77498.28;;;-144.09;100.00
8890;BME280;4481;43.406;24.454;2023-04-30T04:13:43;77492.00;;;-144.09;100.00
8890;BME280;4481;43.406;24.454;2023-04-30T04:16:11;77487.81;;;-144.09;100.00
8890;BME280;4481;43.406;24.454;2023-04-30T04:18:37;77475.28;;;-144.09;100.00
8890;BME280;4481;43.406;24.454;2023-04-30T04:21:03;77450.19;;;-144.09;100.00
8890;BME280;4481;43.406;24.454;2023-04-30T04:23:29;77410.50;;;-144.09;100.00
8890;BME280;4481;43.406;24.454;2023-04-30T04:25:55;77387.50;;;-144.09;100.00
8890;BME280;4481;43.406;24.454;2023-04-30T04:28:22;77364.50;;;-144.09;100.00
8890;BME280;4481;43.406;24.454;2023-04-30T04:30:48;77337.34;;;-144.09;100.00
8890;BME280;4481;43.406;24.454;2023-04-30T04:33:15;77312.25;;;-144.09;100.00
8890;BME280;4481;43.406;24.454;2023-04-30T04:35:41;77295.53;;;-144.09;100.00
8890;BME280;4481;43.406;24.454;2023-04-30T04:38:07;77280.91;;;-144.09;100.00
8890;BME280;4481;43.406;24.454;2023-04-30T04:40:34;77255.81;;;-144.09;100.00
8890;BME280;4481;43.406;24.454;2023-04-30T04:43:00;77224.47;;;-144.09;100.00
8890;BME280;4481;43.406;24.454;2023-04-30T04:45:26;77195.22;;;-144.09;100.00
8890;BME280;4481;43.406;24.454;2023-04-30T04:47:52;77170.16;;;-144.09;100.00
8890;BME280;4481;43.406;24.454;2023-04-30T04:50:19;77151.34;;;-144.09;100.00
8890;BME280;4481;43.406;24.454;2023-04-30T04:52:45;77136.69;;;-144.09;100.00
8890;BME280;4481;43.406;24.454;2023-04-30T04:55:11;77107.44;;;-144.09;100.00
8890;BME280;4481;43.406;24.454;2023-04-30T04:57:38;77078.19;;;-144.09;100.00
8890;BME280;4481;43.406;24.454;2023-04-30T05:00:06;77030.13;;;-144.09;100.00
8890;BME280;4481;43.406;24.454;2023-04-30T05:02:33;77007.13;;;-144.09;100.00
8890;BME280;4481;43.406;24.454;2023-04-30T05:04:59;76996.69;;;-144.09;100.00
8890;BME280;4481;43.406;24.454;2023-04-30T05:07:27;76956.97;;;-144.09;100.00
8890;BME280;4481;43.406;24.454;2023-04-30T05:09:54;76921.44;;;-144.09;100.00
8890;BME280;4481;43.406;24.454;2023-04-30T05:12:20;76879.66;;;-144.09;100.00
8890;BME280;4481;43.406;24.454;2023-04-30T05:14:46;76856.66;;;-144.09;100.00
8890;BME280;4481;43.406;24.454;2023-04-30T05:17:13;76821.13;;;-144.09;100.00
8890;BME280;4481;43.406;24.454;2023-04-30T05:19:39;76777.25;;;-144.09;100.00
8890;BME280;4481;43.406;24.454;2023-04-30T05:22:06;76745.91;;;-144.09;100.00
8890;BME280;4481;43.406;24.454;2023-04-30T05:24:32;76702.03;;;-144.09;100.00
8890;BME280;4481;43.406;24.454;2023-04-30T05:26:58;76647.69;;;-144.09;99.87
8890;BME280;4481;43.406;24.454;2023-04-30T05:29:26;76599.63;;;-144.09;98.07
8890;BME280;4481;43.406;24.454;2023-04-30T05:31:52;76518.16;;;-144.09;95.98
8890;BME280;4481;43.406;24.454;2023-04-30T05:34:18;76507.69;;;-144.09;94.71
8890;BME280;4481;43.406;24.454;2023-04-30T05:36:45;76459.63;;;-144.09;94.24
8890;BME280;4481;43.406;24.454;2023-04-30T05:39:11;76422.03;;;-144.09;93.48
8890;BME280;4481;43.406;24.454;2023-04-30T05:41:37;76392.78;;;-144.09;92.61
8890;BME280;4481;43.406;24.454;2023-04-30T05:44:04;76328.00;;;-144.09;91.30
8890;BME280;4481;43.406;24.454;2023-04-30T05:46:31;76282.03;;;-144.09;90.05
8890;BME280;4481;43.406;24.454;2023-04-30T05:48:57;76242.34;;;-144.09;88.62
8890;BME280;4481;43.406;24.454;2023-04-30T05:51:23;76198.47;;;-144.09;87.71
8890;BME280;4481;43.406;24.454;2023-04-30T05:53:49;76223.53;;;-144.09;86.88
8890;BME280;4481;43.406;24.454;2023-04-30T05:56:15;76196.38;;;-144.09;86.30
8890;BME280;4481;43.406;24.454;2023-04-30T05:58:42;76183.84;;;-144.09;86.86
8890;BME280;4481;43.406;24.454;2023-04-30T06:01:08;76192.19;;;-144.09;85.99
8890;BME280;4481;43.406;24.454;2023-04-30T06:03:35;76204.72;;;-144.09;86.64
8890;BME280;4481;43.406;24.454;2023-04-30T06:06:02;76144.13;;;-144.09;85.13
8890;BME280;4481;43.406;24.454;2023-04-30T06:08:28;76100.25;;;-144.09;83.86
8890;BME280;4481;43.406;24.454;2023-04-30T06:10:55;76058.47;;;-144.09;83.06
8890;BME280;4481;43.406;24.454;2023-04-30T06:13:21;76012.50;;;-144.09;82.48
8890;BME280;4481;43.406;24.454;2023-04-30T06:15:48;75962.38;;;-144.09;80.78
8890;BME280;4481;43.406;24.454;2023-04-30T06:18:15;75931.03;;;-144.09;79.56
8890;BME280;4481;43.406;24.454;2023-04-30T06:20:41;75916.41;;;-144.09;72.24
8890;BME280;4481;43.406;24.454;2023-04-30T06:23:08;75972.81;;;-144.09;65.65
8890;BME280;4481;43.406;24.454;2023-04-30T06:25:34;75993.72;;;-144.09;64.86
8890;BME280;4481;43.406;24.454;2023-04-30T06:28:00;76008.34;;;-144.09;64.44
8890;BME280;4481;43.406;24.454;2023-04-30T06:30:26;75999.97;;;-144.09;64.86
8890;BME280;4481;43.406;24.454;2023-04-30T06:32:53;76020.88;;;-144.09;64.71
8890;BME280;4481;43.406;24.454;2023-04-30T06:35:19;75997.88;;;-144.09;64.56
8890;BME280;4481;43.406;24.454;2023-04-30T06:37:45;75995.81;;;-144.09;65.55
8890;BME280;4481;43.406;24.454;2023-04-30T06:40:12;75964.47;;;-144.09;63.71
8890;BME280;4481;43.406;24.454;2023-04-30T06:42:38;75935.22;;;-144.09;64.02
8890;BME280;4481;43.406;24.454;2023-04-30T06:45:05;75958.19;;;-144.09;62.94
8890;BME280;4481;43.406;24.454;2023-04-30T06:47:31;75974.91;;;-144.09;63.69
8890;BME280;4481;43.406;24.454;2023-04-30T06:49:59;75962.38;;;-144.09;63.87
8890;BME280;4481;43.406;24.454;2023-04-30T06:52:25;75993.72;;;-144.09;63.07
8890;BME280;4481;43.406;24.454;2023-04-30T06:54:51;75970.72;;;-144.09;61.13
8890;BME280;4481;43.406;24.454;2023-04-30T06:57:18;75905.97;;;-144.09;59.94
8890;BME280;4481;43.406;24.454;2023-04-30T06:59:44;75905.97;;;-144.09;59.33
8890;BME280;4481;43.406;24.454;2023-04-30T07:02:10;75887.16;;;-144.09;57.59
8890;BME280;4481;43.406;24.454;2023-04-30T07:04:36;75882.97;;;-144.09;57.83
8890;BME280;4481;43.406;24.454;2023-04-30T07:07:03;75868.34;;;-144.09;54.09
8890;BME280;4481;43.406;24.454;2023-04-30T07:09:30;75868.34;;;-144.09;53.52
8890;BME280;4481;43.406;24.454;2023-04-30T07:11:56;75841.19;;;-144.09;54.94
8890;BME280;4481;43.406;24.454;2023-04-30T07:14:23;75864.19;;;-144.09;55.38
8890;BME280;4481;43.406;24.454;2023-04-30T07:16:49;75910.16;;;-144.09;56.84
8890;BME280;4481;43.406;24.454;2023-04-30T07:19:15;75914.31;;;-144.09;55.51
8890;BME280;4481;43.406;24.454;2023-04-30T07:21:41;75908.06;;;-144.09;55.69
8890;BME280;4481;43.406;24.454;2023-04-30T07:24:08;75964.47;;;-144.09;56.38
8890;BME280;4481;43.406;24.454;2023-04-30T07:26:35;76020.88;;;-144.09;59.42
8890;BME280;4481;43.406;24.454;2023-04-30T07:29:01;76033.41;;;-144.09;59.54
8890;BME280;4481;43.406;24.454;2023-04-30T07:31:28;76066.84;;;-144.09;60.50
8890;BME280;4481;43.406;24.454;2023-04-30T07:33:54;76006.25;;;-144.09;58.10
8890;BME280;4481;43.406;24.454;2023-04-30T07:36:20;75970.72;;;-144.09;59.59
8890;BME280;4481;43.406;24.454;2023-04-30T07:38:47;75947.75;;;-144.09;59.50
8890;BME280;4481;43.406;24.454;2023-04-30T07:41:13;75933.13;;;-144.09;60.76
8890;BME280;4481;43.406;24.454;2023-04-30T07:43:40;75962.38;;;-144.09;62.18
8890;BME280;4481;43.406;24.454;2023-04-30T07:46:06;75977.00;;;-144.09;61.63
8890;BME280;4481;43.406;24.454;2023-04-30T07:48:32;75979.09;;;-144.09;61.62
8890;BME280;4481;43.406;24.454;2023-04-30T07:50:58;75947.75;;;-144.09;63.15
8890;BME280;4481;43.406;24.454;2023-04-30T07:53:24;75916.41;;;-144.09;62.77
8890;BME280;4481;43.406;24.454;2023-04-30T07:55:50;75941.47;;;-144.09;63.67
8890;BME280;4481;43.406;24.454;2023-04-30T07:58:17;75943.56;;;-144.09;62.99
8890;BME280;4481;43.406;24.454;2023-04-30T08:00:43;75937.31;;;-144.09;63.13
8890;BME280;4481;43.406;24.454;2023-04-30T08:03:09;75924.78;;;-144.09;63.47
8890;BME280;4481;43.406;24.454;2023-04-30T08:05:36;75924.78;;;-144.09;62.38
8890;BME280;4481;43.406;24.454;2023-04-30T08:08:03;75889.25;;;-144.09;61.36
8890;BME280;4481;43.406;24.454;2023-04-30T08:10:29;75893.44;;;-144.09;61.42
8890;BME280;4481;43.406;24.454;2023-04-30T08:12:55;75860.00;;;-144.09;60.63
8890;BME280;4481;43.406;24.454;2023-04-30T08:15:22;75870.44;;;-144.09;59.60
8890;BME280;4481;43.406;24.454;2023-04-30T08:17:49;75928.94;;;-144.09;58.37
8890;BME280;4481;43.406;24.454;2023-04-30T08:20:15;75905.97;;;-144.09;59.50
8890;BME280;4481;43.406;24.454;2023-04-30T08:22:41;75887.16;;;-144.09;58.83
8890;BME280;4481;43.406;24.454;2023-04-30T08:25:09;75895.53;;;-144.09;58.54
8890;BME280;4481;43.406;24.454;2023-04-30T08:27:35;75889.25;;;-144.09;58.10
8890;BME280;4481;43.406;24.454;2023-04-30T08:30:02;75878.81;;;-144.09;56.62
8890;BME280;4481;43.406;24.454;2023-04-30T08:32:29;75855.81;;;-144.09;56.99
8890;BME280;4481;43.406;24.454;2023-04-30T08:34:55;75870.44;;;-144.09;57.14
8890;BME280;4481;43.406;24.454;2023-04-30T08:37:21;75870.44;;;-144.09;57.39
8890;BME280;4481;43.406;24.454;2023-04-30T08:39:47;75862.09;;;-144.09;57.92
8890;BME280;4481;43.406;24.454;2023-04-30T08:42:14;75855.81;;;-144.09;59.25
8890;BME280;4481;43.406;24.454;2023-04-30T08:44:42;75851.66;;;-144.09;58.69
8890;BME280;4481;43.406;24.454;2023-04-30T08:47:10;75845.38;;;-144.09;58.76
8890;BME280;4481;43.406;24.454;2023-04-30T08:49:39;75860.00;;;-144.09;58.77
8890;BME280;4481;43.406;24.454;2023-04-30T08:52:06;75864.19;;;-144.09;59.11
8890;BME280;4481;43.406;24.454;2023-04-30T08:54:34;75849.56;;;-144.09;58.91
8890;BME280;4481;43.406;24.454;2023-04-30T08:57:01;75887.16;;;-144.09;58.68
8890;BME280;4481;43.406;24.454;2023-04-30T08:59:28;75866.28;;;-144.09;59.42
8890;BME280;4481;43.406;24.454;2023-04-30T09:01:54;75855.81;;;-144.09;58.04
8890;BME280;4481;43.406;24.454;2023-04-30T09:04:20;75826.56;;;-144.09;57.78
8890;BME280;4481;43.406;24.454;2023-04-30T09:06:47;75851.66;;;-144.09;57.33
8890;BME280;4481;43.406;24.454;2023-04-30T09:09:14;75845.38;;;-144.09;58.21
8890;BME280;4481;43.406;24.454;2023-04-30T09:11:41;75830.75;;;-144.09;56.75
8890;BME280;4481;43.406;24.454;2023-04-30T09:14:07;75845.38;;;-144.09;58.16
8890;BME280;4481;43.406;24.454;2023-04-30T09:16:45;75824.50;;;-144.09;58.22
8890;BME280;4481;43.406;24.454;2023-04-30T09:19:22;75814.03;;;-144.09;58.64
8890;BME280;4481;43.406;24.454;2023-04-30T09:21:49;75807.78;;;-144.09;58.23
8890;BME280;4481;43.406;24.454;2023-04-30T09:24:15;75797.34;;;-144.09;58.83
8890;BME280;4481;43.406;24.454;2023-04-30T09:26:42;75784.78;;;-144.09;59.62
8890;BME280;4481;43.406;24.454;2023-04-30T09:29:11;75818.22;;;-144.09;60.02
8890;BME280;4481;43.406;24.454;2023-04-30T09:31:38;75807.78;;;-144.09;61.22
8890;BME280;4481;43.406;24.454;2023-04-30T09:34:05;75801.50;;;-144.09;61.17
8890;BME280;4481;43.406;24.454;2023-04-30T09:36:31;75816.13;;;-144.09;62.45
8890;BME280;4481;43.406;24.454;2023-04-30T09:39:06;75809.88;;;-144.09;61.33
8890;BME280;4481;43.406;24.454;2023-04-30T09:41:32;75784.78;;;-144.09;62.05
8890;BME280;4481;43.406;24.454;2023-04-30T09:43:58;75826.56;;;-144.09;60.60
8890;BME280;4481;43.406;24.454;2023-04-30T09:46:29;75857.91;;;-144.09;57.99
8890;BME280;4481;43.406;24.454;2023-04-30T09:48:57;75841.19;;;-144.09;57.58
8890;BME280;4481;43.406;24.454;2023-04-30T09:51:23;75814.03;;;-144.09;59.27
8890;BME280;4481;43.406;24.454;2023-04-30T09:53:50;75839.13;;;-144.09;58.44
8890;BME280;4481;43.406;24.454;2023-04-30T09:56:19;75855.81;;;-144.09;58.65
8890;BME280;4481;43.406;24.454;2023-04-30T09:58:49;75851.66;;;-144.09;57.85
8890;BME280;4481;43.406;24.454;2023-04-30T10:01:16;75805.69;;;-144.09;58.17
8890;BME280;4481;43.406;24.454;2023-04-30T10:03:43;75809.88;;;-144.09;58.59
8890;BME280;4481;43.406;24.454;2023-04-30T10:06:12;75809.88;;;-144.09;58.99
8890;BME280;4481;43.406;24.454;2023-04-30T10:08:41;75799.41;;;-144.09;59.23
8890;BME280;4481;43.406;24.454;2023-04-30T10:11:08;75820.31;;;-144.09;58.98
8890;BME280;4481;43.406;24.454;2023-04-30T10:13:41;75799.41;;;-144.09;57.77
8890;BME280;4481;43.406;24.454;2023-04-30T10:16:13;75797.34;;;-144.09;58.10
8890;BME280;4481;43.406;24.454;2023-04-30T10:18:45;75830.75;;;-144.09;58.83
8890;BME280;4481;43.406;24.454;2023-04-30T10:21:15;75818.22;;;-144.09;58.95
8890;BME280;4481;43.406;24.454;2023-04-30T10:23:43;75795.25;;;-144.09;59.11
8890;BME280;4481;43.406;24.454;2023-04-30T10:26:10;75824.50;;;-144.09;59.92
8890;BME280;4481;43.406;24.454;2023-04-30T10:28:38;75824.50;;;-144.09;60.43
8890;BME280;4481;43.406;24.454;2023-04-30T10:31:06;75814.03;;;-144.09;60.30
8890;BME280;4481;43.406;24.454;2023-04-30T10:33:38;75820.31;;;-144.09;60.82
8890;BME280;4481;43.406;24.454;2023-04-30T10:36:22;75795.25;;;-144.09;60.18
8890;BME280;4481;43.406;24.454;2023-04-30T10:38:51;75805.69;;;-144.09;60.68
8890;BME280;4481;43.406;24.454;2023-04-30T10:41:18;75820.31;;;-144.09;61.65
8890;BME280;4481;43.406;24.454;2023-04-30T10:43:46;75799.41;;;-144.09;61.52
8890;BME280;4481;43.406;24.454;2023-04-30T10:46:21;75749.28;;;-144.09;60.66
8890;BME280;4481;43.406;24.454;2023-04-30T10:48:47;75732.56;;;-144.09;60.46
8890;BME280;4481;43.406;24.454;2023-04-30T10:51:13;75703.31;;;-144.09;59.82
8890;BME280;4481;43.406;24.454;2023-04-30T10:53:41;75665.72;;;-144.09;59.20
8890;BME280;4481;43.406;24.454;2023-04-30T10:56:07;75665.72;;;-144.09;57.70
8890;BME280;4481;43.406;24.454;2023-04-30T10:58:34;75678.25;;;-144.09;57.37
8890;BME280;4481;43.406;24.454;2023-04-30T11:01:04;75663.63;;;-144.09;56.90
8890;BME280;4481;43.406;24.454;2023-04-30T11:03:32;75651.09;;;-144.09;56.54
8890;BME280;4481;43.406;24.454;2023-04-30T11:05:59;75628.13;;;-144.09;57.50
8890;BME280;4481;43.406;24.454;2023-04-30T11:08:35;75619.75;;;-144.09;55.24
8890;BME280;4481;43.406;24.454;2023-04-30T11:11:02;75644.84;;;-144.09;57.28
8890;BME280;4481;43.406;24.454;2023-04-30T11:13:38;75630.22;;;-144.09;57.11
8890;BME280;4481;43.406;24.454;2023-04-30T11:16:06;75617.66;;;-144.09;56.80
8890;BME280;4481;43.406;24.454;2023-04-30T11:18:32;75615.59;;;-144.09;56.72
8890;BME280;4481;43.406;24.454;2023-04-30T11:21:00;75586.34;;;-144.09;56.10
8890;BME280;4481;43.406;24.454;2023-04-30T11:23:27;75584.25;;;-144.09;56.31
8890;BME280;4481;43.406;24.454;2023-04-30T11:25:54;75582.16;;;-144.09;54.65
8890;BME280;4481;43.406;24.454;2023-04-30T11:28:22;75561.28;;;-144.09;52.87
8890;BME280;4481;43.406;24.454;2023-04-30T11:30:53;75550.81;;;-144.09;51.91
8890;BME280;4481;43.406;24.454;2023-04-30T11:33:21;75557.09;;;-144.09;51.31
8890;BME280;4481;43.406;24.454;2023-04-30T11:35:47;75538.28;;;-144.09;50.53
8890;BME280;4481;43.406;24.454;2023-04-30T11:38:18;75519.50;;;-144.09;52.36
8890;BME280;4481;43.406;24.454;2023-04-30T11:40:45;75519.50;;;-144.09;52.57
8890;BME280;4481;43.406;24.454;2023-04-30T11:43:20;75532.03;;;-144.09;52.84
8890;BME280;4481;43.406;24.454;2023-04-30T11:45:58;75521.59;;;-144.09;54.03
8890;BME280;4481;43.406;24.454;2023-04-30T11:48:29;75515.31;;;-144.09;54.34
8890;BME280;4481;43.406;24.454;2023-04-30T11:50:55;75546.66;;;-144.09;53.78
8890;BME280;4481;43.406;24.454;2023-04-30T11:53:26;75548.75;;;-144.09;52.76
8890;BME280;4481;43.406;24.454;2023-04-30T11:55:52;75611.41;;;-144.09;53.82
8890;BME280;4481;43.406;24.454;2023-04-30T11:58:19;75609.31;;;-144.09;55.15
8890;BME280;4481;43.406;24.454;2023-04-30T12:00:46;75613.50;;;-144.09;55.40
8890;BME280;4481;43.406;24.454;2023-04-30T12:03:13;75626.03;;;-144.09;54.84
8890;BME280;4481;43.406;24.454;2023-04-30T12:05:40;75596.78;;;-144.09;54.19
8890;BME280;4481;43.406;24.454;2023-04-30T12:08:07;75563.34;;;-144.09;54.19
8890;BME280;4481;43.406;24.454;2023-04-30T12:10:34;75559.19;;;-144.09;55.60
8890;BME280;4481;43.406;24.454;2023-04-30T12:13:01;75552.91;;;-144.09;53.66
8890;BME280;4481;43.406;24.454;2023-04-30T12:15:28;75563.34;;;-144.09;51.12
8890;BME280;4481;43.406;24.454;2023-04-30T12:17:55;75557.09;;;-144.09;52.68
8890;BME280;4481;43.406;24.454;2023-04-30T12:20:23;75559.19;;;-144.09;51.75
8890;BME280;4481;43.406;24.454;2023-04-30T12:22:51;75548.75;;;-144.09;52.71
8890;BME280;4481;43.406;24.454;2023-04-30T12:25:19;75550.81;;;-144.09;52.50
8890;BME280;4481;43.406;24.454;2023-04-30T12:27:47;75527.84;;;-144.09;52.36
8890;BME280;4481;43.406;24.454;2023-04-30T12:30:14;75523.66;;;-144.09;51.68
8890;BME280;4481;43.406;24.454;2023-04-30T12:32:41;75506.97;;;-144.09;51.52
8890;BME280;4481;43.406;24.454;2023-04-30T12:35:12;75517.41;;;-144.09;52.17
8890;BME280;4481;43.406;24.454;2023-04-30T12:37:41;75532.03;;;-144.09;52.56
8890;BME280;4481;43.406;24.454;2023-04-30T12:40:09;75552.91;;;-144.09;53.32
8890;BME280;4481;43.406;24.454;2023-04-30T12:42:36;75544.56;;;-144.09;54.26
8890;BME280;4481;43.406;24.454;2023-04-30T12:45:02;75550.81;;;-144.09;52.64
8890;BME280;4481;43.406;24.454;2023-04-30T12:47:29;75515.31;;;-144.09;52.37